Hayes River, Alaska
Current Conditions -  °F | °C
As of 9:53 AM on Saturday 25 Oct 2014 (Local Time) from PATK Reporting Station
Broken Clouds Broken Clouds  
Wind Chill: 17°   Ceiling: 15000
Heat Index: 17°   Visibility: 10mi
Dew Point: 14°   Wind: 0mph
Humidity: 88%   Direction: NA
Pressure: 29.89"   Gusts: NA
Location:  61.98°N, 152.08°W
Report Text: PATK 251753Z 00000KT 10SM BKN150 M08/M10 A2989 RMK AO2 SLP130 I6000 T10831100 11061 21100 57003
Loading
Personal Weather Stations






























Interactive Weather Map
Tropical Storm Tracking
New forecast layout! Learn more

10-Day Weather Forecast

Advertisements
Track Severe Weather on mobile